Sfax, Tunisia
Current Conditions -  °F | °C
As of 9:00 AM on Friday 31 Oct 2014 (Local Time) from DTTX Reporting Station
Few Clouds Few Clouds  
Wind Chill: 66°   Ceiling: Unl
Heat Index: 66°   Visibility: 6mi
Dew Point: 55°   Wind: 10mph
Humidity: 68%   Direction: 340°NNW
Pressure: 30.15"   Gusts: NA
Location:  34.75°N, 10.76°E
Report Text: DTTX 310800Z 34009KT 9999 FEW020 19/13 Q1021
Loading
Personal Weather Stations






























Interactive Weather Map
Tropical Storm Tracking
New forecast layout! Learn more

10-Day Weather Forecast

Advertisements
Track Severe Weather on mobile